Time;durP1;ratioP1;P1;durP2;ratioP2;P2;SDS_P1;SDS_P2;PMS_P1;PMS_P2;Temp;Humidity;BMP_temperature;BMP_pressure;BME280_temperature;BME280_humidity;BME280_pressure;Samples;Min_cycle;Max_cycle;Signal;HPM_P1;HPM_P2
2021/11/03 00:00:17;;;;;;;9.40;5.12;;;;;;;;;;4378512;32;20097;-65
2021/11/03 00:02:44;;;;;;;8.10;4.50;;;;;;;;;;4390869;32;20072;-64
2021/11/03 00:05:12;;;;;;;7.60;4.65;;;;;;;;;;4391653;32;20085;-65
2021/11/03 00:07:39;;;;;;;6.78;4.25;;;;;;;;;;4378776;32;20092;-65
2021/11/03 00:10:06;;;;;;;7.78;4.78;;;;;;;;;;4378881;32;20066;-64
2021/11/03 00:12:33;;;;;;;6.65;2.92;;;;;;;;;;4378229;32;20090;-65
2021/11/03 00:15:00;;;;;;;6.60;3.90;;;;;;;;;;4366224;32;20077;-65
2021/11/03 00:17:26;;;;;;;9.65;3.90;;;;;;;;;;4378838;32;20151;-64
2021/11/03 00:19:53;;;;;;;7.50;3.90;;;;;;;;;;4378369;32;20457;-65
2021/11/03 00:22:20;;;;;;;6.53;4.03;;;;;;;;;;4378870;32;20101;-65
2021/11/03 00:24:47;;;;;;;6.00;3.65;;;;;;;;;;4365731;32;20516;-66
2021/11/03 00:27:13;;;;;;;5.18;3.40;;;;;;;;;;4378453;32;20082;-65
2021/11/03 00:29:40;;;;;;;6.25;3.90;;;;;;;;;;4378651;32;20097;-66
2021/11/03 00:32:07;;;;;;;4.65;2.83;;;;;;;;;;4378258;32;20080;-64
2021/11/03 00:34:34;;;;;;;8.07;4.07;;;;;;;;;;4390972;32;20088;-65
2021/11/03 00:37:01;;;;;;;6.97;3.58;;;;;;;;;;4379026;32;20073;-65
2021/11/03 00:39:28;;;;;;;6.20;3.37;;;;;;;;;;4378729;32;20089;-65
2021/11/03 00:44:34;;;;;;;4.78;2.85;;;;;;;;;;3857399;37;20066;-67
2021/11/03 00:47:02;;;;;;;6.20;3.62;;;;;;;;;;4393513;32;20429;-66
2021/11/03 00:49:28;;;;;;;6.12;3.40;;;;;;;;;;4393292;32;20062;-65
2021/11/03 00:51:55;;;;;;;4.40;3.10;;;;;;;;;;4405972;32;20074;-66
2021/11/03 00:54:22;;;;;;;5.45;3.33;;;;;;;;;;4392939;32;20085;-65
2021/11/03 00:56:50;;;;;;;6.03;3.58;;;;;;;;;;4405611;32;20162;-66
2021/11/03 00:59:16;;;;;;;4.93;3.00;;;;;;;;;;4405844;32;20164;-65
2021/11/03 01:01:43;;;;;;;5.07;3.22;;;;;;;;;;4418363;32;20077;-65
2021/11/03 01:04:09;;;;;;;7.30;3.47;;;;;;;;;;4392989;32;20160;-66
2021/11/03 01:06:36;;;;;;;5.95;3.42;;;;;;;;;;4405292;32;20079;-65
2021/11/03 01:09:04;;;;;;;5.05;3.22;;;;;;;;;;4405421;32;20524;-66
2021/11/03 01:11:30;;;;;;;5.75;3.58;;;;;;;;;;4380286;32;20088;-66
2021/11/03 01:13:57;;;;;;;5.82;3.35;;;;;;;;;;4405893;32;20495;-65
2021/11/03 01:16:24;;;;;;;5.75;3.40;;;;;;;;;;4405769;32;20082;-66
2021/11/03 01:18:53;;;;;;;5.28;3.33;;;;;;;;;;4419992;32;20426;-65
2021/11/03 01:21:21;;;;;;;4.90;3.30;;;;;;;;;;4419991;32;20074;-66
2021/11/03 01:23:47;;;;;;;4.07;2.50;;;;;;;;;;4393031;32;20085;-64
2021/11/03 01:26:14;;;;;;;5.97;3.85;;;;;;;;;;4392298;32;20139;-66
2021/11/03 01:28:41;;;;;;;5.72;3.65;;;;;;;;;;4405388;32;20454;-65
2021/11/03 01:31:07;;;;;;;5.72;4.20;;;;;;;;;;4392741;32;20079;-66
2021/11/03 01:33:34;;;;;;;6.00;3.80;;;;;;;;;;4417887;32;20496;-65
2021/11/03 01:36:00;;;;;;;4.18;1.27;;;;;;;;;;4405091;32;20153;-65
2021/11/03 01:38:28;;;;;;;5.50;3.87;;;;;;;;;;4417544;32;20096;-66
2021/11/03 01:40:54;;;;;;;7.15;3.67;;;;;;;;;;4418367;32;20519;-66
2021/11/03 01:43:45;;;;;;;10.25;4.30;;;;;;;;;;4392344;32;20073;-65
2021/11/03 01:46:21;;;;;;;3.10;1.92;;;;;;;;;;4392878;32;20089;-65
2021/11/03 01:48:48;;;;;;;;;;;;;;;;;;4417896;32;20452;-66
2021/11/03 01:51:17;;;;;;;;;;;;;;;;;;4392712;32;19961;-66
2021/11/03 01:53:43;;;;;;;3.62;2.17;;;;;;;;;;4416941;32;19961;-65
2021/11/03 01:56:10;;;;;;;7.78;4.00;;;;;;;;;;4369145;32;20082;-65
2021/11/03 01:58:44;;;;;;;7.40;3.70;;;;;;;;;;4407486;32;20162;-66
2021/11/03 02:01:11;;;;;;;7.37;4.97;;;;;;;;;;4394866;32;20165;-67
2021/11/03 02:03:38;;;;;;;6.03;3.78;;;;;;;;;;4382465;32;20115;-65
2021/11/03 02:06:10;;;;;;;7.95;4.30;;;;;;;;;;4394912;32;20157;-66
2021/11/03 02:08:39;;;;;;;8.13;4.30;;;;;;;;;;4369813;32;20073;-66
2021/11/03 02:11:06;;;;;;;6.87;4.55;;;;;;;;;;4394945;32;20539;-64
2021/11/03 02:13:32;;;;;;;6.72;4.07;;;;;;;;;;4382326;32;20080;-66
2021/11/03 02:15:59;;;;;;;6.78;4.30;;;;;;;;;;4381640;32;20093;-66
2021/11/03 02:18:26;;;;;;;3.62;2.45;;;;;;;;;;4382289;32;20459;-64
2021/11/03 02:20:53;;;;;;;7.03;4.00;;;;;;;;;;4369515;32;20105;-64
2021/11/03 02:23:28;;;;;;;6.95;4.28;;;;;;;;;;4392041;32;20079;-65
2021/11/03 02:26:22;;;;;;;6.70;3.95;;;;;;;;;;4403548;32;20450;-65
2021/11/03 02:28:49;;;;;;;7.57;4.32;;;;;;;;;;4402490;32;20089;-65
2021/11/03 02:31:49;;;;;;;9.05;4.78;;;;;;;;;;4384401;32;20098;-66
2021/11/03 02:34:27;;;;;;;9.48;4.95;;;;;;;;;;4350351;32;20093;-66
2021/11/03 02:37:03;;;;;;;7.35;4.00;;;;;;;;;;4394696;32;20157;-65
2021/11/03 02:39:35;;;;;;;8.33;5.03;;;;;;;;;;4395407;32;20469;-66
2021/11/03 02:42:03;;;;;;;9.18;4.80;;;;;;;;;;4381843;32;20085;-66
2021/11/03 02:44:30;;;;;;;8.73;4.95;;;;;;;;;;4393802;32;20082;-65
2021/11/03 02:46:56;;;;;;;10.02;5.62;;;;;;;;;;4381746;32;20585;-65
2021/11/03 02:49:23;;;;;;;10.73;5.50;;;;;;;;;;4381498;32;20065;-66
2021/11/03 02:51:50;;;;;;;9.77;5.50;;;;;;;;;;4393924;32;20073;-64
2021/11/03 02:54:18;;;;;;;9.57;4.72;;;;;;;;;;4406286;32;20145;-66
2021/11/03 02:56:48;;;;;;;9.07;4.62;;;;;;;;;;4393943;32;20105;-64
2021/11/03 02:59:16;;;;;;;11.05;5.15;;;;;;;;;;4394222;32;20061;-65
2021/11/03 03:01:44;;;;;;;9.10;5.25;;;;;;;;;;4381673;32;20084;-65
2021/11/03 03:04:13;;;;;;;9.23;3.85;;;;;;;;;;4393871;32;20153;-65
2021/11/03 03:06:40;;;;;;;8.18;4.65;;;;;;;;;;4380552;32;20089;-66
2021/11/03 03:09:07;;;;;;;9.63;5.82;;;;;;;;;;4369015;32;20084;-65
2021/11/03 03:11:35;;;;;;;9.13;5.05;;;;;;;;;;4368667;32;20081;-64
2021/11/03 03:14:02;;;;;;;8.85;4.82;;;;;;;;;;4381393;32;20081;-64
2021/11/03 03:16:28;;;;;;;7.40;4.68;;;;;;;;;;4406002;32;20150;-65
2021/11/03 03:18:55;;;;;;;3.28;1.98;;;;;;;;;;4381361;32;20085;-66
2021/11/03 03:21:22;;;;;;;7.62;4.43;;;;;;;;;;4368324;32;20452;-66
2021/11/03 03:23:49;;;;;;;11.73;4.20;;;;;;;;;;4381045;32;20088;-65
2021/11/03 03:26:18;;;;;;;9.50;4.87;;;;;;;;;;4368726;32;20162;-67
2021/11/03 03:28:44;;;;;;;8.95;5.15;;;;;;;;;;4393601;32;20073;-66
2021/11/03 03:31:12;;;;;;;8.23;5.07;;;;;;;;;;4380618;32;20072;-65
2021/11/03 03:33:39;;;;;;;12.20;5.90;;;;;;;;;;4380801;32;20061;-65
2021/11/03 03:36:06;;;;;;;10.15;4.95;;;;;;;;;;4368627;32;20144;-66
2021/11/03 03:38:33;;;;;;;9.07;4.57;;;;;;;;;;4381251;32;20139;-66
2021/11/03 03:41:00;;;;;;;8.73;4.90;;;;;;;;;;4380581;32;20093;-66
2021/11/03 03:43:26;;;;;;;8.30;4.78;;;;;;;;;;4392969;32;20162;-64
2021/11/03 03:45:53;;;;;;;8.52;4.72;;;;;;;;;;4380451;32;20492;-65
2021/11/03 03:48:20;;;;;;;7.65;4.20;;;;;;;;;;4381166;32;20079;-66
2021/11/03 03:50:47;;;;;;;10.18;5.20;;;;;;;;;;4383532;32;20517;-65
2021/11/03 03:53:13;;;;;;;8.32;4.60;;;;;;;;;;4388332;32;20065;-66
2021/11/03 03:55:40;;;;;;;8.55;4.45;;;;;;;;;;4394690;32;20081;-64
2021/11/03 03:58:07;;;;;;;7.12;4.35;;;;;;;;;;4380561;32;20160;-65
2021/11/03 04:00:35;;;;;;;7.30;4.20;;;;;;;;;;4381245;32;20077;-65
2021/11/03 04:03:02;;;;;;;6.95;3.70;;;;;;;;;;4380607;32;20085;-65
2021/11/03 04:05:29;;;;;;;8.77;4.80;;;;;;;;;;4392725;32;20065;-64
2021/11/03 04:07:56;;;;;;;7.32;4.57;;;;;;;;;;4393479;32;20164;-66
2021/11/03 04:10:22;;;;;;;7.90;4.80;;;;;;;;;;4405680;32;20572;-65
2021/11/03 04:12:49;;;;;;;8.77;4.32;;;;;;;;;;4380304;32;20076;-65
2021/11/03 04:15:16;;;;;;;8.07;4.85;;;;;;;;;;4392986;32;20089;-65
2021/11/03 04:17:43;;;;;;;8.98;4.70;;;;;;;;;;4380220;32;20081;-65
2021/11/03 04:20:10;;;;;;;8.15;4.78;;;;;;;;;;4405568;32;20065;-66
2021/11/03 04:22:37;;;;;;;8.68;4.60;;;;;;;;;;4367736;32;20066;-65
2021/11/03 04:25:05;;;;;;;7.50;4.75;;;;;;;;;;4392455;32;20479;-65
2021/11/03 04:27:31;;;;;;;6.62;3.87;;;;;;;;;;4405168;32;20089;-66
2021/11/03 04:29:58;;;;;;;6.37;4.40;;;;;;;;;;4405001;32;20080;-64
2021/11/03 04:32:24;;;;;;;9.07;4.80;;;;;;;;;;4392666;32;20161;-64
2021/11/03 04:34:51;;;;;;;7.10;4.78;;;;;;;;;;4380299;32;20085;-65
2021/11/03 04:37:18;;;;;;;6.12;4.10;;;;;;;;;;4367376;32;20169;-65
2021/11/03 04:39:44;;;;;;;8.32;4.70;;;;;;;;;;4380066;32;20514;-65
2021/11/03 04:42:11;;;;;;;8.85;4.65;;;;;;;;;;4406890;32;20561;-66
2021/11/03 04:44:37;;;;;;;8.27;4.60;;;;;;;;;;4392433;32;20097;-65
2021/11/03 04:47:04;;;;;;;6.72;4.03;;;;;;;;;;4393131;32;20108;-66
2021/11/03 04:49:31;;;;;;;7.07;4.60;;;;;;;;;;4392599;32;20146;-64
2021/11/03 04:51:58;;;;;;;7.55;4.72;;;;;;;;;;4380071;32;20153;-66
2021/11/03 04:54:24;;;;;;;7.03;4.50;;;;;;;;;;4380168;32;20073;-65
2021/11/03 04:56:51;;;;;;;7.70;3.95;;;;;;;;;;4393038;32;20088;-65
2021/11/03 04:59:18;;;;;;;8.95;4.15;;;;;;;;;;4392751;32;20085;-64
2021/11/03 05:01:45;;;;;;;7.78;4.12;;;;;;;;;;4380219;32;20081;-65
2021/11/03 05:04:12;;;;;;;3.33;2.00;;;;;;;;;;4379940;32;20081;-65
2021/11/03 05:06:40;;;;;;;7.95;4.05;;;;;;;;;;4379918;32;20084;-65
2021/11/03 05:09:08;;;;;;;6.70;4.22;;;;;;;;;;4392899;32;20161;-66
2021/11/03 05:11:35;;;;;;;6.45;4.00;;;;;;;;;;4380353;32;20145;-65
2021/11/03 05:14:02;;;;;;;6.62;4.35;;;;;;;;;;4367401;32;20084;-65
2021/11/03 05:16:28;;;;;;;6.68;4.15;;;;;;;;;;4379842;32;20085;-66
2021/11/03 05:18:56;;;;;;;7.85;4.10;;;;;;;;;;4379852;32;20510;-65
2021/11/03 05:21:23;;;;;;;8.13;3.80;;;;;;;;;;4392249;32;20092;-66
2021/11/03 05:23:49;;;;;;;6.07;3.83;;;;;;;;;;4392611;32;20169;-66
2021/11/03 05:26:19;;;;;;;7.25;3.75;;;;;;;;;;4392365;32;20076;-65
2021/11/03 05:31:27;;;;;;;6.68;3.90;;;;;;;;;;3857264;37;20050;-65
2021/11/03 05:33:55;;;;;;;6.53;3.72;;;;;;;;;;4381008;32;20092;-65
2021/11/03 05:36:24;;;;;;;6.55;3.53;;;;;;;;;;4378399;32;20072;-65
2021/11/03 05:38:50;;;;;;;5.93;3.60;;;;;;;;;;4378284;32;20089;-66
2021/11/03 05:41:17;;;;;;;8.32;3.87;;;;;;;;;;4390352;32;20065;-64
2021/11/03 05:43:44;;;;;;;6.20;3.25;;;;;;;;;;4377939;32;20077;-65
2021/11/03 05:46:15;;;;;;;7.60;4.03;;;;;;;;;;4402899;32;20104;-65
2021/11/03 05:48:44;;;;;;;6.53;3.92;;;;;;;;;;4403344;32;20078;-65
2021/11/03 05:51:11;;;;;;;5.78;3.33;;;;;;;;;;4403438;32;20062;-65
2021/11/03 05:53:38;;;;;;;7.25;3.67;;;;;;;;;;4377685;32;20078;-65
2021/11/03 05:56:06;;;;;;;4.32;2.70;;;;;;;;;;4365830;32;20099;-64
2021/11/03 05:58:33;;;;;;;6.22;3.35;;;;;;;;;;4390433;32;20504;-65
2021/11/03 06:01:00;;;;;;;6.10;3.60;;;;;;;;;;4402783;32;20081;-65
2021/11/03 06:03:27;;;;;;;9.23;4.30;;;;;;;;;;4390580;32;20499;-65
2021/11/03 06:05:54;;;;;;;6.93;3.95;;;;;;;;;;4389893;32;20080;-66
2021/11/03 06:08:20;;;;;;;5.75;3.80;;;;;;;;;;4390399;32;20089;-66
2021/11/03 06:10:50;;;;;;;6.60;4.03;;;;;;;;;;4402846;32;20073;-65
2021/11/03 06:13:17;;;;;;;4.93;2.97;;;;;;;;;;4390759;32;20074;-68
2021/11/03 06:15:43;;;;;;;5.18;2.85;;;;;;;;;;4391196;32;20113;-65
2021/11/03 06:18:11;;;;;;;6.80;3.30;;;;;;;;;;4378138;32;20082;-66
2021/11/03 06:20:38;;;;;;;5.10;3.15;;;;;;;;;;4373171;32;20088;-65
2021/11/03 06:23:06;;;;;;;8.20;3.58;;;;;;;;;;4411256;32;20141;-66
2021/11/03 06:25:34;;;;;;;7.32;4.03;;;;;;;;;;4390133;32;20154;-66
2021/11/03 06:28:01;;;;;;;8.40;3.40;;;;;;;;;;4390063;32;20530;-64
2021/11/03 06:30:32;;;;;;;8.25;3.70;;;;;;;;;;4364969;32;20093;-65
2021/11/03 06:32:58;;;;;;;6.65;3.47;;;;;;;;;;4390919;32;20105;-65
2021/11/03 06:35:26;;;;;;;8.68;3.83;;;;;;;;;;4389968;32;20061;-65
2021/11/03 06:37:53;;;;;;;7.25;3.12;;;;;;;;;;4390066;32;20090;-67
2021/11/03 06:40:22;;;;;;;6.87;4.05;;;;;;;;;;4377143;32;20066;-66
2021/11/03 06:42:48;;;;;;;9.45;3.58;;;;;;;;;;4392716;32;20157;-64
2021/11/03 06:45:15;;;;;;;6.00;3.12;;;;;;;;;;4367359;32;20069;-66
2021/11/03 06:47:42;;;;;;;3.80;2.00;;;;;;;;;;4354894;32;20082;-64
2021/11/03 06:50:09;;;;;;;7.40;3.40;;;;;;;;;;4379814;32;20098;-64
2021/11/03 06:52:36;;;;;;;3.95;2.53;;;;;;;;;;4379532;32;20453;-65
2021/11/03 06:55:03;;;;;;;3.42;2.00;;;;;;;;;;4379812;32;20212;-65
2021/11/03 06:57:30;;;;;;;6.18;3.00;;;;;;;;;;4379799;32;20074;-64
2021/11/03 06:59:59;;;;;;;5.47;3.08;;;;;;;;;;4366959;32;20092;-66
2021/11/03 07:02:26;;;;;;;7.37;3.15;;;;;;;;;;4379400;32;20500;-65
2021/11/03 07:04:52;;;;;;;5.03;2.78;;;;;;;;;;4379313;32;20081;-64
2021/11/03 07:07:19;;;;;;;3.37;2.17;;;;;;;;;;4379410;32;20240;-65
2021/11/03 07:09:45;;;;;;;5.93;3.20;;;;;;;;;;4391645;32;20100;-64
2021/11/03 07:12:12;;;;;;;4.25;2.75;;;;;;;;;;4378954;32;20066;-66
2021/11/03 07:14:38;;;;;;;7.37;3.05;;;;;;;;;;4379768;32;20104;-65
2021/11/03 07:17:11;;;;;;;5.50;3.03;;;;;;;;;;4354416;32;20596;-65
2021/11/03 07:19:39;;;;;;;4.50;2.85;;;;;;;;;;4391440;32;20076;-65
2021/11/03 07:22:05;;;;;;;4.32;2.70;;;;;;;;;;4354821;32;20082;-65
2021/11/03 07:24:32;;;;;;;4.37;2.50;;;;;;;;;;4366546;32;20536;-64
2021/11/03 07:26:59;;;;;;;4.80;2.85;;;;;;;;;;4366960;32;20097;-64
2021/11/03 07:29:26;;;;;;;4.72;2.65;;;;;;;;;;4379173;32;21311;-63
2021/11/03 07:31:52;;;;;;;3.90;2.37;;;;;;;;;;4379164;32;20520;-64
2021/11/03 07:34:19;;;;;;;4.12;2.47;;;;;;;;;;4366320;32;20100;-64
2021/11/03 07:36:46;;;;;;;4.07;2.53;;;;;;;;;;4379070;32;20078;-64
2021/11/03 07:39:13;;;;;;;4.60;2.72;;;;;;;;;;4379545;32;20153;-66
2021/11/03 07:41:39;;;;;;;4.12;2.47;;;;;;;;;;4378926;32;20074;-64
2021/11/03 07:44:06;;;;;;;3.72;2.42;;;;;;;;;;4378645;32;20066;-64
2021/11/03 07:46:33;;;;;;;5.57;2.65;;;;;;;;;;4379209;32;20173;-65
2021/11/03 07:49:00;;;;;;;4.80;2.37;;;;;;;;;;4366599;32;20528;-64
2021/11/03 07:51:27;;;;;;;4.37;2.40;;;;;;;;;;4378550;32;20464;-65
2021/11/03 07:53:58;;;;;;;4.37;2.40;;;;;;;;;;4353301;32;20158;-65
2021/11/03 07:56:25;;;;;;;5.28;2.60;;;;;;;;;;4366621;32;20070;-65
2021/11/03 07:58:52;;;;;;;4.75;2.62;;;;;;;;;;4378916;32;20101;-66
2021/11/03 08:01:19;;;;;;;4.95;2.67;;;;;;;;;;4366301;32;20069;-66
2021/11/03 08:03:46;;;;;;;4.60;2.33;;;;;;;;;;4378833;32;20174;-64
2021/11/03 08:06:12;;;;;;;3.95;2.30;;;;;;;;;;4366474;32;20536;-64
2021/11/03 08:08:44;;;;;;;3.30;2.25;;;;;;;;;;4368938;32;20089;-65
2021/11/03 08:11:12;;;;;;;6.90;2.65;;;;;;;;;;4392034;32;20089;-66
2021/11/03 08:13:38;;;;;;;2.47;1.80;;;;;;;;;;4376310;32;20076;-67
2021/11/03 08:16:05;;;;;;;3.80;2.22;;;;;;;;;;4391715;32;20137;-65
2021/11/03 08:18:37;;;;;;;3.25;2.58;;;;;;;;;;4355926;32;20082;-65
2021/11/03 08:21:04;;;;;;;5.57;3.00;;;;;;;;;;4366306;32;20522;-64
2021/11/03 08:23:31;;;;;;;4.18;2.15;;;;;;;;;;4378340;32;20077;-65
2021/11/03 08:25:57;;;;;;;3.17;2.10;;;;;;;;;;4364584;32;20532;-65
2021/11/03 08:28:24;;;;;;;4.15;2.45;;;;;;;;;;4365257;32;20508;-64
2021/11/03 08:30:54;;;;;;;3.92;2.15;;;;;;;;;;4361882;32;20469;-65
2021/11/03 08:33:42;;;;;;;4.75;2.83;;;;;;;;;;4375303;32;20073;-66
2021/11/03 08:36:09;;;;;;;3.92;2.28;;;;;;;;;;4364213;32;20085;-65
2021/11/03 08:38:35;;;;;;;5.53;2.42;;;;;;;;;;4362566;32;20100;-64
2021/11/03 08:41:02;;;;;;;3.67;2.40;;;;;;;;;;4362389;32;20155;-64
2021/11/03 08:43:31;;;;;;;6.57;2.97;;;;;;;;;;4362708;32;20070;-63
2021/11/03 08:45:58;;;;;;;5.40;2.50;;;;;;;;;;4375267;32;20609;-64
2021/11/03 08:48:25;;;;;;;3.92;2.33;;;;;;;;;;4362642;32;20083;-63
2021/11/03 08:50:53;;;;;;;4.45;2.12;;;;;;;;;;4376735;32;20071;-66
2021/11/03 08:53:19;;;;;;;3.25;2.10;;;;;;;;;;4371784;32;20144;-65
2021/11/03 08:55:47;;;;;;;3.58;2.05;;;;;;;;;;4370033;32;20504;-67
2021/11/03 08:58:14;;;;;;;4.72;2.05;;;;;;;;;;4363425;32;20090;-64
2021/11/03 09:00:42;;;;;;;4.50;1.95;;;;;;;;;;4362821;32;20081;-64
2021/11/03 09:03:10;;;;;;;3.35;2.12;;;;;;;;;;4362708;32;20225;-65
2021/11/03 09:05:37;;;;;;;3.22;2.05;;;;;;;;;;4362495;32;20090;-65
2021/11/03 09:08:05;;;;;;;6.00;2.40;;;;;;;;;;4362775;32;20074;-67
2021/11/03 09:10:34;;;;;;;5.37;2.70;;;;;;;;;;4362536;32;20097;-66
2021/11/03 09:13:01;;;;;;;3.10;2.08;;;;;;;;;;4350972;32;20524;-66
2021/11/03 09:15:28;;;;;;;4.03;2.35;;;;;;;;;;4362159;32;20128;-63
2021/11/03 09:17:55;;;;;;;3.65;2.12;;;;;;;;;;4362575;32;20078;-65
2021/11/03 09:20:22;;;;;;;5.35;2.58;;;;;;;;;;4375155;32;20085;-64
2021/11/03 09:22:48;;;;;;;3.58;2.33;;;;;;;;;;4362364;32;20094;-65
2021/11/03 09:25:19;;;;;;;3.78;2.25;;;;;;;;;;4362470;32;20110;-65
2021/11/03 09:27:46;;;;;;;4.93;2.50;;;;;;;;;;4362838;32;20179;-66
2021/11/03 09:30:13;;;;;;;5.07;2.45;;;;;;;;;;4374364;32;20174;-64
2021/11/03 09:32:42;;;;;;;4.25;3.10;;;;;;;;;;4375316;32;20089;-63
2021/11/03 09:35:10;;;;;;;5.62;2.53;;;;;;;;;;4350284;32;20062;-64
2021/11/03 09:37:37;;;;;;;4.22;2.40;;;;;;;;;;4374976;32;20078;-65
2021/11/03 09:40:06;;;;;;;5.28;2.22;;;;;;;;;;4362236;32;20079;-66
2021/11/03 09:42:33;;;;;;;6.22;2.28;;;;;;;;;;4362512;32;20464;-67
2021/11/03 09:44:59;;;;;;;3.92;2.50;;;;;;;;;;4362080;32;20096;-64
2021/11/03 09:47:32;;;;;;;3.08;1.85;;;;;;;;;;4361130;32;20082;-64
2021/11/03 09:50:15;;;;;;;5.30;2.10;;;;;;;;;;4374812;32;20127;-72
2021/11/03 09:52:45;;;;;;;2.42;1.58;;;;;;;;;;4362660;32;20093;-64
2021/11/03 09:55:21;;;;;;;5.50;2.55;;;;;;;;;;4361980;32;20074;-66
2021/11/03 09:58:26;;;;;;;5.93;2.55;;;;;;;;;;4362225;32;20070;-67
2021/11/03 10:00:59;;;;;;;5.37;2.28;;;;;;;;;;4362283;32;20070;-66
2021/11/03 10:03:40;;;;;;;4.05;2.47;;;;;;;;;;4362241;32;20097;-66
2021/11/03 10:06:19;;;;;;;3.92;2.58;;;;;;;;;;4362029;32;20076;-65
2021/11/03 10:08:48;;;;;;;4.12;2.15;;;;;;;;;;4374293;32;20429;-66
2021/11/03 10:11:42;;;;;;;5.55;2.05;;;;;;;;;;4375369;32;20070;-66
2021/11/03 10:14:09;;;;;;;4.15;2.50;;;;;;;;;;4361566;32;20074;-65
2021/11/03 10:16:40;;;;;;;7.85;2.80;;;;;;;;;;4363041;32;20084;-65
2021/11/03 10:19:21;;;;;;;2.83;2.00;;;;;;;;;;4365197;32;20088;-63
2021/11/03 10:21:53;;;;;;;4.72;2.60;;;;;;;;;;4372828;32;20089;-63
2021/11/03 10:24:22;;;;;;;3.40;1.90;;;;;;;;;;4364856;32;20490;-64
2021/11/03 10:27:08;;;;;;;5.12;2.70;;;;;;;;;;4379480;32;20206;-65
2021/11/03 10:29:43;;;;;;;3.62;2.25;;;;;;;;;;4356360;32;20159;-63
2021/11/03 10:32:10;;;;;;;2.92;1.25;;;;;;;;;;4379988;32;20153;-64
2021/11/03 10:34:39;;;;;;;4.37;2.37;;;;;;;;;;4392106;32;20065;-63
2021/11/03 10:37:23;;;;;;;5.43;2.60;;;;;;;;;;4389386;32;20504;-61
2021/11/03 10:39:59;;;;;;;4.82;2.28;;;;;;;;;;4377018;32;20085;-62
2021/11/03 10:42:51;;;;;;;7.70;2.30;;;;;;;;;;4376312;32;20084;-62
2021/11/03 10:45:29;;;;;;;6.37;2.33;;;;;;;;;;4381566;32;20097;-61
2021/11/03 10:48:18;;;;;;;4.57;2.42;;;;;;;;;;4379729;32;20067;-62
2021/11/03 10:51:10;;;;;;;5.47;3.05;;;;;;;;;;4386526;32;20090;-61
2021/11/03 10:53:37;;;;;;;4.18;2.30;;;;;;;;;;4372881;32;20102;-60
2021/11/03 10:56:15;;;;;;;3.85;2.30;;;;;;;;;;4389038;32;20078;-62
2021/11/03 10:58:51;;;;;;;5.03;2.65;;;;;;;;;;4385922;32;20500;-63
2021/11/03 11:01:30;;;;;;;6.37;2.30;;;;;;;;;;4391978;32;20498;-63
2021/11/03 11:03:59;;;;;;;7.43;2.65;;;;;;;;;;4389969;32;20058;-63
2021/11/03 11:06:29;;;;;;;3.55;2.45;;;;;;;;;;4372912;32;20078;-62
2021/11/03 11:09:10;;;;;;;4.15;2.42;;;;;;;;;;4376793;32;20145;-63
2021/11/03 11:11:39;;;;;;;3.17;1.98;;;;;;;;;;4366811;32;20082;-61
2021/11/03 11:14:17;;;;;;;4.12;2.67;;;;;;;;;;4367324;32;20096;-63
2021/11/03 11:17:22;;;;;;;4.37;2.53;;;;;;;;;;4367251;32;20480;-61
2021/11/03 11:19:55;;;;;;;5.07;3.17;;;;;;;;;;4380854;32;20495;-62
2021/11/03 11:23:09;;;;;;;5.43;2.70;;;;;;;;;;4393069;32;20161;-63
2021/11/03 11:25:55;;;;;;;3.85;2.47;;;;;;;;;;4363220;32;20066;-62
2021/11/03 11:28:28;;;;;;;5.62;3.22;;;;;;;;;;4386096;32;20084;-65
2021/11/03 11:31:11;;;;;;;6.72;3.10;;;;;;;;;;4383567;32;20093;-62
2021/11/03 11:33:42;;;;;;;4.50;2.53;;;;;;;;;;4379538;32;20077;-63
2021/11/03 11:36:18;;;;;;;4.07;2.72;;;;;;;;;;4378804;32;20078;-62
2021/11/03 11:39:11;;;;;;;3.97;2.37;;;;;;;;;;4383561;32;20109;-63
2021/11/03 11:42:08;;;;;;;4.95;2.72;;;;;;;;;;4348986;32;20081;-64
2021/11/03 11:44:39;;;;;;;6.70;2.90;;;;;;;;;;4378537;32;20124;-63
2021/11/03 11:47:07;;;;;;;7.80;2.60;;;;;;;;;;4373315;32;20185;-62
2021/11/03 11:49:39;;;;;;;6.37;2.55;;;;;;;;;;4349207;32;20175;-62
2021/11/03 11:52:23;;;;;;;11.00;3.17;;;;;;;;;;4362695;32;20480;-62
2021/11/03 11:55:12;;;;;;;5.22;3.00;;;;;;;;;;4365776;32;20063;-63
2021/11/03 11:57:39;;;;;;;6.30;3.33;;;;;;;;;;4378137;32;20085;-62
2021/11/03 12:00:09;;;;;;;7.20;2.95;;;;;;;;;;4374414;32;20074;-63
2021/11/03 12:03:08;;;;;;;6.90;3.37;;;;;;;;;;4389301;32;20086;-61
2021/11/03 12:05:43;;;;;;;5.05;3.42;;;;;;;;;;4372440;32;20166;-61
2021/11/03 12:08:10;;;;;;;;;;;;;;;;;;4385035;32;20064;-64
2021/11/03 12:10:47;;;;;;;8.55;3.15;;;;;;;;;;4381765;32;19966;-64
2021/11/03 12:13:14;;;;;;;6.93;3.53;;;;;;;;;;4358873;32;20066;-61
2021/11/03 12:15:50;;;;;;;6.18;3.40;;;;;;;;;;4383967;32;20155;-62
2021/11/03 12:18:27;;;;;;;5.80;3.22;;;;;;;;;;4382904;32;20161;-69
2021/11/03 12:20:57;;;;;;;5.72;2.85;;;;;;;;;;4380986;32;20508;-65
2021/11/03 12:23:50;;;;;;;5.65;3.30;;;;;;;;;;4383986;32;20148;-63
2021/11/03 12:26:26;;;;;;;9.32;3.53;;;;;;;;;;4378051;32;20112;-64
2021/11/03 12:29:00;;;;;;;5.87;3.35;;;;;;;;;;4383296;32;20089;-64
2021/11/03 12:31:45;;;;;;;7.82;3.67;;;;;;;;;;4381832;32;20157;-62
2021/11/03 12:34:18;;;;;;;9.52;3.50;;;;;;;;;;4377052;32;20113;-63
2021/11/03 12:36:47;;;;;;;7.20;3.85;;;;;;;;;;4386061;32;20566;-62
2021/11/03 12:39:31;;;;;;;8.02;3.58;;;;;;;;;;4382938;32;20155;-64
2021/11/03 12:42:02;;;;;;;5.90;2.95;;;;;;;;;;4373261;32;20109;-67
2021/11/03 12:44:38;;;;;;;5.28;2.87;;;;;;;;;;4372627;32;20066;-61
2021/11/03 12:47:26;;;;;;;6.65;4.03;;;;;;;;;;4359487;32;20190;-63
2021/11/03 12:50:16;;;;;;;7.03;3.40;;;;;;;;;;4370022;32;20076;-61
2021/11/03 12:52:44;;;;;;;9.40;4.00;;;;;;;;;;4366359;32;20537;-63
2021/11/03 12:55:21;;;;;;;9.13;3.55;;;;;;;;;;4381472;32;20106;-63
2021/11/03 12:57:48;;;;;;;7.53;3.85;;;;;;;;;;4370484;32;20125;-63
2021/11/03 13:00:18;;;;;;;5.18;3.42;;;;;;;;;;4367914;32;20097;-63
2021/11/03 13:02:51;;;;;;;5.87;3.53;;;;;;;;;;4371641;32;20097;-63
2021/11/03 13:05:19;;;;;;;6.57;3.90;;;;;;;;;;4371865;32;20108;-64
2021/11/03 13:07:46;;;;;;;6.43;3.45;;;;;;;;;;4381870;32;20068;-64
2021/11/03 13:10:30;;;;;;;6.65;3.65;;;;;;;;;;4361265;32;20141;-63
2021/11/03 13:12:59;;;;;;;9.27;3.70;;;;;;;;;;4365004;32;20193;-63
2021/11/03 13:15:37;;;;;;;6.78;3.53;;;;;;;;;;4384114;32;20105;-63
2021/11/03 13:18:20;;;;;;;8.15;3.50;;;;;;;;;;4375261;32;20113;-61
2021/11/03 13:21:01;;;;;;;5.65;3.33;;;;;;;;;;4371024;32;20139;-62
2021/11/03 13:23:29;;;;;;;7.70;3.35;;;;;;;;;;4381076;32;20096;-60
2021/11/03 13:26:01;;;;;;;5.35;3.30;;;;;;;;;;4369725;32;20073;-62
2021/11/03 13:28:32;;;;;;;5.22;3.10;;;;;;;;;;4359956;32;20154;-62
2021/11/03 13:31:18;;;;;;;5.53;3.00;;;;;;;;;;4368386;32;20120;-63
2021/11/03 13:34:21;;;;;;;5.55;3.03;;;;;;;;;;4386429;32;20506;-62
2021/11/03 13:37:19;;;;;;;5.55;2.55;;;;;;;;;;4350152;32;20134;-62
2021/11/03 13:40:09;;;;;;;4.10;2.25;;;;;;;;;;4370233;32;20079;-62
2021/11/03 13:42:40;;;;;;;4.68;2.67;;;;;;;;;;4378963;32;20504;-70
2021/11/03 13:45:23;;;;;;;3.50;2.45;;;;;;;;;;4378805;32;20073;-74
2021/11/03 13:48:38;;;;;;;5.03;2.40;;;;;;;;;;4374084;32;20485;-65
2021/11/03 13:51:14;;;;;;;3.70;2.47;;;;;;;;;;4392443;32;20082;-64
2021/11/03 13:53:50;;;;;;;3.28;2.00;;;;;;;;;;4363592;32;20165;-62
2021/11/03 13:56:17;;;;;;;4.72;2.12;;;;;;;;;;4352185;32;20104;-62
2021/11/03 13:58:58;;;;;;;3.08;2.15;;;;;;;;;;4376091;32;20131;-61
2021/11/03 14:01:25;;;;;;;5.30;2.30;;;;;;;;;;4374155;32;20078;-65
2021/11/03 14:03:57;;;;;;;5.55;2.33;;;;;;;;;;4383574;32;20085;-65
2021/11/03 14:06:31;;;;;;;4.55;2.03;;;;;;;;;;4382026;32;20112;-63
2021/11/03 14:09:13;;;;;;;3.37;2.20;;;;;;;;;;4375036;32;20113;-66
2021/11/03 14:11:40;;;;;;;3.47;1.87;;;;;;;;;;4376894;32;20070;-64
2021/11/03 14:14:07;;;;;;;4.85;1.98;;;;;;;;;;4387849;32;20080;-62
2021/11/03 14:16:56;;;;;;;2.75;1.62;;;;;;;;;;4352455;32;20070;-62
2021/11/03 14:19:25;;;;;;;3.35;1.73;;;;;;;;;;4360312;32;20161;-62
2021/11/03 14:21:52;;;;;;;2.12;1.40;;;;;;;;;;4372823;32;20080;-62
2021/11/03 14:24:19;;;;;;;4.15;1.70;;;;;;;;;;4373453;32;20117;-65
2021/11/03 14:26:46;;;;;;;5.22;2.22;;;;;;;;;;4368933;32;20066;-63
2021/11/03 14:29:13;;;;;;;3.22;1.95;;;;;;;;;;4388858;32;20535;-64
2021/11/03 14:31:39;;;;;;;6.85;1.98;;;;;;;;;;4374881;32;20586;-65
2021/11/03 14:34:11;;;;;;;7.12;2.10;;;;;;;;;;4372180;32;20081;-65
2021/11/03 14:36:38;;;;;;;2.65;1.75;;;;;;;;;;4349433;32;20074;-65
2021/11/03 14:39:05;;;;;;;1.58;1.35;;;;;;;;;;4347712;32;20190;-63
2021/11/03 14:41:31;;;;;;;4.57;1.87;;;;;;;;;;4361240;32;20544;-63
2021/11/03 14:44:03;;;;;;;4.12;1.80;;;;;;;;;;4374459;32;20138;-61
2021/11/03 14:46:42;;;;;;;2.60;1.70;;;;;;;;;;4369075;32;20554;-62
2021/11/03 14:49:32;;;;;;;3.25;1.70;;;;;;;;;;4357684;32;20104;-60
2021/11/03 14:52:33;;;;;;;2.25;1.60;;;;;;;;;;4375726;32;20097;-62
2021/11/03 14:55:03;;;;;;;2.30;1.33;;;;;;;;;;4382809;32;20491;-61
2021/11/03 14:57:30;;;;;;;2.55;1.55;;;;;;;;;;4373535;32;20081;-63
2021/11/03 14:59:57;;;;;;;2.92;1.45;;;;;;;;;;4362563;32;20179;-62
2021/11/03 15:02:32;;;;;;;3.67;1.90;;;;;;;;;;4390376;32;20078;-64
2021/11/03 15:04:59;;;;;;;3.62;1.75;;;;;;;;;;4369652;32;20073;-63
2021/11/03 15:07:25;;;;;;;3.12;1.45;;;;;;;;;;4388906;32;20078;-62
2021/11/03 15:09:53;;;;;;;5.28;1.77;;;;;;;;;;4378213;32;20057;-61